sensor_id;sensor_type;location;lat;lon;timestamp;temperature;humidity
4431;DHT22;2228;48.140;11.488;2022-07-05T00:02:22;18.20;1.00
4431;DHT22;2228;48.140;11.488;2022-07-05T00:04:50;18.20;1.00
4431;DHT22;2228;48.140;11.488;2022-07-05T00:07:17;18.20;1.00
4431;DHT22;2228;48.140;11.488;2022-07-05T00:09:44;18.20;1.00
4431;DHT22;2228;48.140;11.488;2022-07-05T00:12:11;18.10;1.00
4431;DHT22;2228;48.140;11.488;2022-07-05T00:14:39;18.00;1.00
4431;DHT22;2228;48.140;11.488;2022-07-05T00:17:06;17.80;1.00
4431;DHT22;2228;48.140;11.488;2022-07-05T00:19:33;17.90;1.00
4431;DHT22;2228;48.140;11.488;2022-07-05T00:22:01;17.70;1.00
4431;DHT22;2228;48.140;11.488;2022-07-05T00:24:28;17.60;1.00
4431;DHT22;2228;48.140;11.488;2022-07-05T00:26:55;17.50;1.00
4431;DHT22;2228;48.140;11.488;2022-07-05T00:29:22;17.50;1.00
4431;DHT22;2228;48.140;11.488;2022-07-05T00:31:49;17.60;1.00
4431;DHT22;2228;48.140;11.488;2022-07-05T00:34:16;17.70;1.00
4431;DHT22;2228;48.140;11.488;2022-07-05T00:36:43;17.60;1.00
4431;DHT22;2228;48.140;11.488;2022-07-05T00:39:11;17.60;1.00
4431;DHT22;2228;48.140;11.488;2022-07-05T00:41:38;17.40;1.00
4431;DHT22;2228;48.140;11.488;2022-07-05T00:44:07;17.40;1.00
4431;DHT22;2228;48.140;11.488;2022-07-05T00:46:35;17.50;1.00
4431;DHT22;2228;48.140;11.488;2022-07-05T00:49:03;17.50;1.00
4431;DHT22;2228;48.140;11.488;2022-07-05T00:51:32;17.50;1.00
4431;DHT22;2228;48.140;11.488;2022-07-05T00:54:00;17.60;1.00
4431;DHT22;2228;48.140;11.488;2022-07-05T00:56:29;17.70;1.00
4431;DHT22;2228;48.140;11.488;2022-07-05T00:58:56;17.80;1.00
4431;DHT22;2228;48.140;11.488;2022-07-05T01:01:22;17.90;1.00
4431;DHT22;2228;48.140;11.488;2022-07-05T01:03:50;17.90;1.00
4431;DHT22;2228;48.140;11.488;2022-07-05T01:06:16;17.90;1.00
4431;DHT22;2228;48.140;11.488;2022-07-05T01:08:44;17.90;1.00
4431;DHT22;2228;48.140;11.488;2022-07-05T01:11:13;17.80;1.00
4431;DHT22;2228;48.140;11.488;2022-07-05T01:13:42;17.70;1.00
4431;DHT22;2228;48.140;11.488;2022-07-05T01:16:09;17.70;1.00
4431;DHT22;2228;48.140;11.488;2022-07-05T01:18:36;17.70;1.00
4431;DHT22;2228;48.140;11.488;2022-07-05T01:21:03;17.70;1.00
4431;DHT22;2228;48.140;11.488;2022-07-05T01:23:32;17.60;1.00
4431;DHT22;2228;48.140;11.488;2022-07-05T01:26:00;17.60;1.00
4431;DHT22;2228;48.140;11.488;2022-07-05T01:28:28;17.50;1.00
4431;DHT22;2228;48.140;11.488;2022-07-05T01:30:55;17.50;1.00
4431;DHT22;2228;48.140;11.488;2022-07-05T01:33:27;17.50;1.00
4431;DHT22;2228;48.140;11.488;2022-07-05T01:35:54;17.40;1.00
4431;DHT22;2228;48.140;11.488;2022-07-05T01:38:21;17.40;1.00
4431;DHT22;2228;48.140;11.488;2022-07-05T01:40:49;17.40;1.00
4431;DHT22;2228;48.140;11.488;2022-07-05T01:43:17;17.50;1.00
4431;DHT22;2228;48.140;11.488;2022-07-05T01:45:45;17.50;1.00
4431;DHT22;2228;48.140;11.488;2022-07-05T01:48:14;17.40;1.00
4431;DHT22;2228;48.140;11.488;2022-07-05T01:50:43;17.30;1.00
4431;DHT22;2228;48.140;11.488;2022-07-05T01:53:15;17.20;1.00
4431;DHT22;2228;48.140;11.488;2022-07-05T01:55:44;17.20;1.00
4431;DHT22;2228;48.140;11.488;2022-07-05T01:58:12;17.10;1.00
4431;DHT22;2228;48.140;11.488;2022-07-05T02:00:44;17.10;1.00
4431;DHT22;2228;48.140;11.488;2022-07-05T02:03:11;17.10;1.00
4431;DHT22;2228;48.140;11.488;2022-07-05T02:05:38;17.00;1.00
4431;DHT22;2228;48.140;11.488;2022-07-05T02:08:06;17.10;1.00
4431;DHT22;2228;48.140;11.488;2022-07-05T02:10:34;16.90;1.00
4431;DHT22;2228;48.140;11.488;2022-07-05T02:13:01;17.00;1.00
4431;DHT22;2228;48.140;11.488;2022-07-05T02:15:31;17.00;1.00
4431;DHT22;2228;48.140;11.488;2022-07-05T02:17:58;17.10;1.00
4431;DHT22;2228;48.140;11.488;2022-07-05T02:20:25;17.00;1.00
4431;DHT22;2228;48.140;11.488;2022-07-05T02:22:51;17.00;1.00
4431;DHT22;2228;48.140;11.488;2022-07-05T02:25:18;17.00;1.00
4431;DHT22;2228;48.140;11.488;2022-07-05T02:27:45;17.00;1.00
4431;DHT22;2228;48.140;11.488;2022-07-05T02:30:13;17.00;1.00
4431;DHT22;2228;48.140;11.488;2022-07-05T02:32:41;17.00;1.00
4431;DHT22;2228;48.140;11.488;2022-07-05T02:35:09;17.00;1.00
4431;DHT22;2228;48.140;11.488;2022-07-05T02:37:37;17.10;1.00
4431;DHT22;2228;48.140;11.488;2022-07-05T02:40:06;17.20;1.00
4431;DHT22;2228;48.140;11.488;2022-07-05T02:42:33;17.20;1.00
4431;DHT22;2228;48.140;11.488;2022-07-05T02:45:00;17.20;1.00
4431;DHT22;2228;48.140;11.488;2022-07-05T02:47:29;17.10;1.00
4431;DHT22;2228;48.140;11.488;2022-07-05T02:49:58;17.10;1.00
4431;DHT22;2228;48.140;11.488;2022-07-05T02:52:27;17.30;1.00
4431;DHT22;2228;48.140;11.488;2022-07-05T02:54:54;17.30;1.00
4431;DHT22;2228;48.140;11.488;2022-07-05T02:57:21;17.30;1.00
4431;DHT22;2228;48.140;11.488;2022-07-05T02:59:48;17.30;1.00
4431;DHT22;2228;48.140;11.488;2022-07-05T03:02:14;17.30;1.00
4431;DHT22;2228;48.140;11.488;2022-07-05T03:04:41;17.30;1.00
4431;DHT22;2228;48.140;11.488;2022-07-05T03:07:09;17.30;1.00
4431;DHT22;2228;48.140;11.488;2022-07-05T03:09:36;17.20;1.00
4431;DHT22;2228;48.140;11.488;2022-07-05T03:12:04;17.30;1.00
4431;DHT22;2228;48.140;11.488;2022-07-05T03:14:31;17.20;1.00
4431;DHT22;2228;48.140;11.488;2022-07-05T03:16:58;17.10;1.00
4431;DHT22;2228;48.140;11.488;2022-07-05T03:19:24;17.10;1.00
4431;DHT22;2228;48.140;11.488;2022-07-05T03:21:51;17.10;1.00
4431;DHT22;2228;48.140;11.488;2022-07-05T03:24:19;17.10;1.00
4431;DHT22;2228;48.140;11.488;2022-07-05T03:26:46;17.00;1.00
4431;DHT22;2228;48.140;11.488;2022-07-05T03:29:19;17.20;1.00
4431;DHT22;2228;48.140;11.488;2022-07-05T03:31:46;17.10;1.00
4431;DHT22;2228;48.140;11.488;2022-07-05T03:34:12;17.20;1.00
4431;DHT22;2228;48.140;11.488;2022-07-05T03:36:39;17.20;1.00
4431;DHT22;2228;48.140;11.488;2022-07-05T03:39:06;17.20;1.00
4431;DHT22;2228;48.140;11.488;2022-07-05T03:41:34;17.20;1.00
4431;DHT22;2228;48.140;11.488;2022-07-05T03:44:01;17.20;1.00
4431;DHT22;2228;48.140;11.488;2022-07-05T03:46:28;17.20;1.00
4431;DHT22;2228;48.140;11.488;2022-07-05T03:48:55;17.10;1.00
4431;DHT22;2228;48.140;11.488;2022-07-05T03:51:22;17.00;1.00
4431;DHT22;2228;48.140;11.488;2022-07-05T03:53:49;17.00;1.00
4431;DHT22;2228;48.140;11.488;2022-07-05T03:56:15;17.00;1.00
4431;DHT22;2228;48.140;11.488;2022-07-05T03:58:47;16.90;1.00
4431;DHT22;2228;48.140;11.488;2022-07-05T04:01:14;17.10;1.00
4431;DHT22;2228;48.140;11.488;2022-07-05T04:03:41;17.10;1.00
4431;DHT22;2228;48.140;11.488;2022-07-05T04:06:08;17.10;1.00
4431;DHT22;2228;48.140;11.488;2022-07-05T04:08:35;17.10;1.00
4431;DHT22;2228;48.140;11.488;2022-07-05T04:11:02;17.10;1.00
4431;DHT22;2228;48.140;11.488;2022-07-05T04:13:29;17.10;1.00
4431;DHT22;2228;48.140;11.488;2022-07-05T04:15:58;17.10;1.00
4431;DHT22;2228;48.140;11.488;2022-07-05T04:18:24;17.10;1.00
4431;DHT22;2228;48.140;11.488;2022-07-05T04:20:51;17.20;1.00
4431;DHT22;2228;48.140;11.488;2022-07-05T04:23:18;17.10;1.00
4431;DHT22;2228;48.140;11.488;2022-07-05T04:25:45;17.10;1.00
4431;DHT22;2228;48.140;11.488;2022-07-05T04:28:12;17.20;1.00
4431;DHT22;2228;48.140;11.488;2022-07-05T04:30:38;17.30;1.00
4431;DHT22;2228;48.140;11.488;2022-07-05T04:33:07;17.30;1.00
4431;DHT22;2228;48.140;11.488;2022-07-05T04:35:33;17.30;1.00
4431;DHT22;2228;48.140;11.488;2022-07-05T04:38:00;17.30;1.00
4431;DHT22;2228;48.140;11.488;2022-07-05T04:40:27;17.30;1.00
4431;DHT22;2228;48.140;11.488;2022-07-05T04:42:54;17.40;1.00
4431;DHT22;2228;48.140;11.488;2022-07-05T04:45:22;17.50;1.00
4431;DHT22;2228;48.140;11.488;2022-07-05T04:47:49;17.60;1.00
4431;DHT22;2228;48.140;11.488;2022-07-05T04:50:17;17.60;1.00
4431;DHT22;2228;48.140;11.488;2022-07-05T04:52:44;17.60;1.00
4431;DHT22;2228;48.140;11.488;2022-07-05T04:55:10;17.60;1.00
4431;DHT22;2228;48.140;11.488;2022-07-05T04:57:38;17.60;1.00
4431;DHT22;2228;48.140;11.488;2022-07-05T05:00:08;17.70;1.00
4431;DHT22;2228;48.140;11.488;2022-07-05T05:02:35;17.60;1.00
4431;DHT22;2228;48.140;11.488;2022-07-05T05:05:02;17.60;1.00
4431;DHT22;2228;48.140;11.488;2022-07-05T05:07:31;17.60;1.00
4431;DHT22;2228;48.140;11.488;2022-07-05T05:09:58;17.70;1.00
4431;DHT22;2228;48.140;11.488;2022-07-05T05:12:26;17.70;1.00
4431;DHT22;2228;48.140;11.488;2022-07-05T05:14:53;17.80;1.00
4431;DHT22;2228;48.140;11.488;2022-07-05T05:17:20;17.80;1.00
4431;DHT22;2228;48.140;11.488;2022-07-05T05:19:47;17.80;1.00
4431;DHT22;2228;48.140;11.488;2022-07-05T05:22:14;17.80;1.00
4431;DHT22;2228;48.140;11.488;2022-07-05T05:24:42;17.60;1.00
4431;DHT22;2228;48.140;11.488;2022-07-05T05:27:09;17.70;1.00
4431;DHT22;2228;48.140;11.488;2022-07-05T05:29:35;17.90;1.00
4431;DHT22;2228;48.140;11.488;2022-07-05T05:32:03;17.90;1.00
4431;DHT22;2228;48.140;11.488;2022-07-05T05:34:30;18.00;1.00
4431;DHT22;2228;48.140;11.488;2022-07-05T05:36:56;18.10;1.00
4431;DHT22;2228;48.140;11.488;2022-07-05T05:39:23;18.10;1.00
4431;DHT22;2228;48.140;11.488;2022-07-05T05:41:51;18.10;1.00
4431;DHT22;2228;48.140;11.488;2022-07-05T05:44:18;18.20;1.00
4431;DHT22;2228;48.140;11.488;2022-07-05T05:46:45;18.40;1.00
4431;DHT22;2228;48.140;11.488;2022-07-05T05:49:12;18.50;1.00
4431;DHT22;2228;48.140;11.488;2022-07-05T05:51:38;18.50;1.00
4431;DHT22;2228;48.140;11.488;2022-07-05T05:54:05;18.70;1.00
4431;DHT22;2228;48.140;11.488;2022-07-05T05:56:32;18.80;1.00
4431;DHT22;2228;48.140;11.488;2022-07-05T05:59:00;18.90;1.00
4431;DHT22;2228;48.140;11.488;2022-07-05T06:01:27;18.90;1.00
4431;DHT22;2228;48.140;11.488;2022-07-05T06:03:54;18.90;1.00
4431;DHT22;2228;48.140;11.488;2022-07-05T06:06:21;18.90;1.00
4431;DHT22;2228;48.140;11.488;2022-07-05T06:08:47;19.10;1.00
4431;DHT22;2228;48.140;11.488;2022-07-05T06:11:14;19.20;1.00
4431;DHT22;2228;48.140;11.488;2022-07-05T06:13:41;19.30;1.00
4431;DHT22;2228;48.140;11.488;2022-07-05T06:16:09;19.30;1.00
4431;DHT22;2228;48.140;11.488;2022-07-05T06:18:36;19.30;1.00
4431;DHT22;2228;48.140;11.488;2022-07-05T06:21:03;19.50;1.00
4431;DHT22;2228;48.140;11.488;2022-07-05T06:23:30;19.60;1.00
4431;DHT22;2228;48.140;11.488;2022-07-05T06:25:57;19.70;1.00
4431;DHT22;2228;48.140;11.488;2022-07-05T06:28:24;19.80;99.90
4431;DHT22;2228;48.140;11.488;2022-07-05T06:30:50;19.90;99.90
4431;DHT22;2228;48.140;11.488;2022-07-05T06:33:19;20.10;99.90
4431;DHT22;2228;48.140;11.488;2022-07-05T06:35:46;20.20;99.90
4431;DHT22;2228;48.140;11.488;2022-07-05T06:38:13;20.30;99.90
4431;DHT22;2228;48.140;11.488;2022-07-05T06:40:41;20.40;99.90
4431;DHT22;2228;48.140;11.488;2022-07-05T06:43:10;20.50;99.90
4431;DHT22;2228;48.140;11.488;2022-07-05T06:45:37;20.60;99.90
4431;DHT22;2228;48.140;11.488;2022-07-05T06:48:06;20.60;99.90
4431;DHT22;2228;48.140;11.488;2022-07-05T06:50:36;20.80;99.90
4431;DHT22;2228;48.140;11.488;2022-07-05T06:53:03;20.90;99.90
4431;DHT22;2228;48.140;11.488;2022-07-05T06:55:31;21.00;99.90
4431;DHT22;2228;48.140;11.488;2022-07-05T06:58:01;21.00;99.90
4431;DHT22;2228;48.140;11.488;2022-07-05T07:00:29;21.10;99.90
4431;DHT22;2228;48.140;11.488;2022-07-05T07:02:57;21.10;99.90
4431;DHT22;2228;48.140;11.488;2022-07-05T07:05:25;21.20;99.90
4431;DHT22;2228;48.140;11.488;2022-07-05T07:07:53;21.30;99.90
4431;DHT22;2228;48.140;11.488;2022-07-05T07:10:38;21.20;99.90
4431;DHT22;2228;48.140;11.488;2022-07-05T07:13:06;21.40;99.90
4431;DHT22;2228;48.140;11.488;2022-07-05T07:15:33;21.60;99.90
4431;DHT22;2228;48.140;11.488;2022-07-05T07:17:59;21.90;99.90
4431;DHT22;2228;48.140;11.488;2022-07-05T07:20:27;22.00;99.90
4431;DHT22;2228;48.140;11.488;2022-07-05T07:22:55;22.10;99.90
4431;DHT22;2228;48.140;11.488;2022-07-05T07:25:22;22.10;99.90
4431;DHT22;2228;48.140;11.488;2022-07-05T07:27:50;21.90;99.90
4431;DHT22;2228;48.140;11.488;2022-07-05T07:30:20;21.80;99.90
4431;DHT22;2228;48.140;11.488;2022-07-05T07:32:47;21.80;99.90
4431;DHT22;2228;48.140;11.488;2022-07-05T07:35:14;21.90;99.90
4431;DHT22;2228;48.140;11.488;2022-07-05T07:37:41;22.10;99.90
4431;DHT22;2228;48.140;11.488;2022-07-05T07:40:10;22.20;99.90
4431;DHT22;2228;48.140;11.488;2022-07-05T07:42:37;22.20;99.90
4431;DHT22;2228;48.140;11.488;2022-07-05T07:45:05;22.40;99.90
4431;DHT22;2228;48.140;11.488;2022-07-05T07:47:32;22.70;99.90
4431;DHT22;2228;48.140;11.488;2022-07-05T07:49:59;22.90;99.90
4431;DHT22;2228;48.140;11.488;2022-07-05T07:52:27;23.10;18.80
4431;DHT22;2228;48.140;11.488;2022-07-05T07:54:56;23.20;26.30
4431;DHT22;2228;48.140;11.488;2022-07-05T07:57:24;23.40;9.10
4431;DHT22;2228;48.140;11.488;2022-07-05T07:59:51;23.50;1.00
4431;DHT22;2228;48.140;11.488;2022-07-05T08:02:17;23.60;1.00
4431;DHT22;2228;48.140;11.488;2022-07-05T08:04:46;23.90;1.00
4431;DHT22;2228;48.140;11.488;2022-07-05T08:07:13;24.20;1.00
4431;DHT22;2228;48.140;11.488;2022-07-05T08:09:40;24.30;1.00
4431;DHT22;2228;48.140;11.488;2022-07-05T08:12:07;24.60;1.00
4431;DHT22;2228;48.140;11.488;2022-07-05T08:14:36;25.00;1.00
4431;DHT22;2228;48.140;11.488;2022-07-05T08:17:03;25.00;1.00
4431;DHT22;2228;48.140;11.488;2022-07-05T08:19:33;24.80;1.00
4431;DHT22;2228;48.140;11.488;2022-07-05T08:22:18;25.00;1.00
4431;DHT22;2228;48.140;11.488;2022-07-05T08:24:45;25.10;1.00
4431;DHT22;2228;48.140;11.488;2022-07-05T08:27:12;25.00;1.00
4431;DHT22;2228;48.140;11.488;2022-07-05T08:29:40;24.90;1.00
4431;DHT22;2228;48.140;11.488;2022-07-05T08:32:08;25.00;1.00
4431;DHT22;2228;48.140;11.488;2022-07-05T08:34:36;25.10;1.00
4431;DHT22;2228;48.140;11.488;2022-07-05T08:37:03;25.00;1.00
4431;DHT22;2228;48.140;11.488;2022-07-05T08:39:31;24.70;1.00
4431;DHT22;2228;48.140;11.488;2022-07-05T08:41:58;24.70;1.00
4431;DHT22;2228;48.140;11.488;2022-07-05T08:44:27;24.90;1.00
4431;DHT22;2228;48.140;11.488;2022-07-05T08:46:56;25.00;1.00
4431;DHT22;2228;48.140;11.488;2022-07-05T08:49:25;25.20;1.00
4431;DHT22;2228;48.140;11.488;2022-07-05T08:51:53;25.60;1.00
4431;DHT22;2228;48.140;11.488;2022-07-05T08:54:22;26.00;1.00
4431;DHT22;2228;48.140;11.488;2022-07-05T08:56:49;26.10;1.00
4431;DHT22;2228;48.140;11.488;2022-07-05T08:59:16;25.80;1.00
4431;DHT22;2228;48.140;11.488;2022-07-05T09:01:45;26.20;1.00
4431;DHT22;2228;48.140;11.488;2022-07-05T09:04:13;26.40;1.00
4431;DHT22;2228;48.140;11.488;2022-07-05T09:06:46;26.20;1.00
4431;DHT22;2228;48.140;11.488;2022-07-05T09:09:13;26.10;1.00
4431;DHT22;2228;48.140;11.488;2022-07-05T09:11:43;26.20;1.00
4431;DHT22;2228;48.140;11.488;2022-07-05T09:14:19;26.10;1.00
4431;DHT22;2228;48.140;11.488;2022-07-05T09:16:46;26.20;1.00
4431;DHT22;2228;48.140;11.488;2022-07-05T09:19:15;26.40;1.00
4431;DHT22;2228;48.140;11.488;2022-07-05T09:21:42;26.40;1.00
4431;DHT22;2228;48.140;11.488;2022-07-05T09:24:09;26.20;1.00
4431;DHT22;2228;48.140;11.488;2022-07-05T09:26:38;26.50;1.00
4431;DHT22;2228;48.140;11.488;2022-07-05T09:29:08;26.60;1.00
4431;DHT22;2228;48.140;11.488;2022-07-05T09:31:37;26.80;1.00
4431;DHT22;2228;48.140;11.488;2022-07-05T09:34:06;27.00;1.00
4431;DHT22;2228;48.140;11.488;2022-07-05T09:36:49;26.80;1.00
4431;DHT22;2228;48.140;11.488;2022-07-05T09:39:16;26.90;1.00
4431;DHT22;2228;48.140;11.488;2022-07-05T09:41:43;27.10;1.00
4431;DHT22;2228;48.140;11.488;2022-07-05T09:44:10;26.90;1.00
4431;DHT22;2228;48.140;11.488;2022-07-05T09:46:37;27.20;1.00
4431;DHT22;2228;48.140;11.488;2022-07-05T09:49:04;27.50;1.00
4431;DHT22;2228;48.140;11.488;2022-07-05T09:51:48;27.90;1.00
4431;DHT22;2228;48.140;11.488;2022-07-05T09:54:15;28.00;1.00
4431;DHT22;2228;48.140;11.488;2022-07-05T09:56:46;27.30;1.00
4431;DHT22;2228;48.140;11.488;2022-07-05T09:59:17;26.60;1.00
4431;DHT22;2228;48.140;11.488;2022-07-05T10:01:45;25.80;1.00
4431;DHT22;2228;48.140;11.488;2022-07-05T10:04:13;25.70;1.00
4431;DHT22;2228;48.140;11.488;2022-07-05T10:06:40;26.20;1.00
4431;DHT22;2228;48.140;11.488;2022-07-05T10:09:10;27.10;1.00
4431;DHT22;2228;48.140;11.488;2022-07-05T10:11:39;27.90;1.00
4431;DHT22;2228;48.140;11.488;2022-07-05T10:14:14;28.40;1.00
4431;DHT22;2228;48.140;11.488;2022-07-05T10:16:45;28.50;1.00
4431;DHT22;2228;48.140;11.488;2022-07-05T10:19:19;28.50;1.00
4431;DHT22;2228;48.140;11.488;2022-07-05T10:21:47;28.20;1.00
4431;DHT22;2228;48.140;11.488;2022-07-05T10:24:17;27.30;1.00
4431;DHT22;2228;48.140;11.488;2022-07-05T10:26:46;26.50;1.00
4431;DHT22;2228;48.140;11.488;2022-07-05T10:29:14;26.10;1.00
4431;DHT22;2228;48.140;11.488;2022-07-05T10:31:43;26.30;1.00
4431;DHT22;2228;48.140;11.488;2022-07-05T10:34:12;27.20;1.00
4431;DHT22;2228;48.140;11.488;2022-07-05T10:36:40;28.50;1.00
4431;DHT22;2228;48.140;11.488;2022-07-05T10:39:09;29.30;1.00
4431;DHT22;2228;48.140;11.488;2022-07-05T10:41:38;29.20;1.00
4431;DHT22;2228;48.140;11.488;2022-07-05T10:44:05;28.40;1.00
4431;DHT22;2228;48.140;11.488;2022-07-05T10:46:34;27.40;1.00
4431;DHT22;2228;48.140;11.488;2022-07-05T10:49:13;26.70;1.00
4431;DHT22;2228;48.140;11.488;2022-07-05T10:51:40;27.00;1.00
4431;DHT22;2228;48.140;11.488;2022-07-05T10:54:07;27.90;1.00
4431;DHT22;2228;48.140;11.488;2022-07-05T10:56:34;28.00;1.00
4431;DHT22;2228;48.140;11.488;2022-07-05T10:59:08;28.30;1.00
4431;DHT22;2228;48.140;11.488;2022-07-05T11:01:39;28.90;1.00
4431;DHT22;2228;48.140;11.488;2022-07-05T11:06:56;28.90;1.00
4431;DHT22;2228;48.140;11.488;2022-07-05T11:09:23;28.60;1.00
4431;DHT22;2228;48.140;11.488;2022-07-05T11:12:07;28.30;1.00
4431;DHT22;2228;48.140;11.488;2022-07-05T11:14:37;28.60;1.00
4431;DHT22;2228;48.140;11.488;2022-07-05T11:17:16;28.70;1.00
4431;DHT22;2228;48.140;11.488;2022-07-05T11:20:08;28.70;1.00
4431;DHT22;2228;48.140;11.488;2022-07-05T11:22:36;28.70;1.00
4431;DHT22;2228;48.140;11.488;2022-07-05T11:25:05;28.10;1.00
4431;DHT22;2228;48.140;11.488;2022-07-05T11:27:33;27.80;1.00
4431;DHT22;2228;48.140;11.488;2022-07-05T11:30:02;28.20;1.00
4431;DHT22;2228;48.140;11.488;2022-07-05T11:32:37;28.90;1.00
4431;DHT22;2228;48.140;11.488;2022-07-05T11:35:22;29.50;1.00
4431;DHT22;2228;48.140;11.488;2022-07-05T11:38:01;30.00;1.00
4431;DHT22;2228;48.140;11.488;2022-07-05T11:40:33;30.50;1.00
4431;DHT22;2228;48.140;11.488;2022-07-05T11:43:00;30.40;1.00
4431;DHT22;2228;48.140;11.488;2022-07-05T11:45:30;30.10;1.00
4431;DHT22;2228;48.140;11.488;2022-07-05T11:47:57;29.50;1.00
4431;DHT22;2228;48.140;11.488;2022-07-05T11:50:27;29.00;1.00
4431;DHT22;2228;48.140;11.488;2022-07-05T11:52:54;28.10;1.00
4431;DHT22;2228;48.140;11.488;2022-07-05T11:55:21;27.50;1.00
4431;DHT22;2228;48.140;11.488;2022-07-05T11:57:49;27.20;1.00
4431;DHT22;2228;48.140;11.488;2022-07-05T12:00:26;27.80;1.00
4431;DHT22;2228;48.140;11.488;2022-07-05T12:02:55;28.60;1.00
4431;DHT22;2228;48.140;11.488;2022-07-05T12:05:22;28.90;1.00
4431;DHT22;2228;48.140;11.488;2022-07-05T12:07:51;28.40;1.00
4431;DHT22;2228;48.140;11.488;2022-07-05T12:10:19;28.10;1.00
4431;DHT22;2228;48.140;11.488;2022-07-05T12:13:04;28.10;1.00
4431;DHT22;2228;48.140;11.488;2022-07-05T12:15:32;28.10;1.00
4431;DHT22;2228;48.140;11.488;2022-07-05T12:18:01;28.90;1.00
4431;DHT22;2228;48.140;11.488;2022-07-05T12:20:31;29.70;1.00
4431;DHT22;2228;48.140;11.488;2022-07-05T12:22:58;30.30;1.00
4431;DHT22;2228;48.140;11.488;2022-07-05T12:25:29;30.10;1.00
4431;DHT22;2228;48.140;11.488;2022-07-05T12:27:58;29.60;1.00
4431;DHT22;2228;48.140;11.488;2022-07-05T12:30:28;29.40;1.00
4431;DHT22;2228;48.140;11.488;2022-07-05T12:32:57;29.20;1.00
4431;DHT22;2228;48.140;11.488;2022-07-05T12:35:34;29.30;1.00
4431;DHT22;2228;48.140;11.488;2022-07-05T12:38:03;29.30;1.00
4431;DHT22;2228;48.140;11.488;2022-07-05T12:40:30;28.90;1.00
4431;DHT22;2228;48.140;11.488;2022-07-05T12:43:02;28.50;1.00
4431;DHT22;2228;48.140;11.488;2022-07-05T12:45:29;28.60;1.00
4431;DHT22;2228;48.140;11.488;2022-07-05T12:47:57;29.50;1.00
4431;DHT22;2228;48.140;11.488;2022-07-05T12:50:29;29.50;1.00
4431;DHT22;2228;48.140;11.488;2022-07-05T12:53:00;29.10;1.00
4431;DHT22;2228;48.140;11.488;2022-07-05T12:55:47;28.40;1.00
4431;DHT22;2228;48.140;11.488;2022-07-05T12:58:32;28.20;1.00
4431;DHT22;2228;48.140;11.488;2022-07-05T13:00:59;29.10;1.00
4431;DHT22;2228;48.140;11.488;2022-07-05T13:03:27;30.10;1.00
4431;DHT22;2228;48.140;11.488;2022-07-05T13:06:01;30.00;1.00
4431;DHT22;2228;48.140;11.488;2022-07-05T13:08:30;29.50;1.00
4431;DHT22;2228;48.140;11.488;2022-07-05T13:10:57;30.00;1.00
4431;DHT22;2228;48.140;11.488;2022-07-05T13:13:24;30.70;1.00
4431;DHT22;2228;48.140;11.488;2022-07-05T13:15:51;31.80;1.00
4431;DHT22;2228;48.140;11.488;2022-07-05T13:18:27;32.50;1.00
4431;DHT22;2228;48.140;11.488;2022-07-05T13:20:54;32.90;1.00
4431;DHT22;2228;48.140;11.488;2022-07-05T13:23:20;33.00;1.00
4431;DHT22;2228;48.140;11.488;2022-07-05T13:25:49;33.00;1.00
4431;DHT22;2228;48.140;11.488;2022-07-05T13:28:16;32.30;1.00
4431;DHT22;2228;48.140;11.488;2022-07-05T13:30:42;31.40;1.00
4431;DHT22;2228;48.140;11.488;2022-07-05T13:33:09;31.10;1.00
4431;DHT22;2228;48.140;11.488;2022-07-05T13:35:36;31.30;1.00
4431;DHT22;2228;48.140;11.488;2022-07-05T13:38:03;31.60;1.00
4431;DHT22;2228;48.140;11.488;2022-07-05T13:40:30;32.40;1.00
4431;DHT22;2228;48.140;11.488;2022-07-05T13:42:58;33.00;1.00
4431;DHT22;2228;48.140;11.488;2022-07-05T13:45:25;33.20;1.00
4431;DHT22;2228;48.140;11.488;2022-07-05T13:47:52;33.20;99.90
4431;DHT22;2228;48.140;11.488;2022-07-05T13:50:19;33.40;1.00
4431;DHT22;2228;48.140;11.488;2022-07-05T13:52:59;33.30;1.00
4431;DHT22;2228;48.140;11.488;2022-07-05T13:55:27;33.20;1.00
4431;DHT22;2228;48.140;11.488;2022-07-05T13:57:54;33.30;1.00
4431;DHT22;2228;48.140;11.488;2022-07-05T14:00:24;33.40;99.90
4431;DHT22;2228;48.140;11.488;2022-07-05T14:02:52;32.60;1.00
4431;DHT22;2228;48.140;11.488;2022-07-05T14:05:19;31.80;1.00
4431;DHT22;2228;48.140;11.488;2022-07-05T14:07:46;32.10;99.90
4431;DHT22;2228;48.140;11.488;2022-07-05T14:10:14;32.70;1.00
4431;DHT22;2228;48.140;11.488;2022-07-05T14:12:40;33.10;99.90
4431;DHT22;2228;48.140;11.488;2022-07-05T14:15:08;33.60;99.90
4431;DHT22;2228;48.140;11.488;2022-07-05T14:17:36;34.60;99.90
4431;DHT22;2228;48.140;11.488;2022-07-05T14:20:04;35.20;99.90
4431;DHT22;2228;48.140;11.488;2022-07-05T14:22:35;35.40;99.90
4431;DHT22;2228;48.140;11.488;2022-07-05T14:25:02;36.10;99.90
4431;DHT22;2228;48.140;11.488;2022-07-05T14:27:29;36.80;99.90
4431;DHT22;2228;48.140;11.488;2022-07-05T14:29:56;36.90;99.90
4431;DHT22;2228;48.140;11.488;2022-07-05T14:32:23;37.60;99.90
4431;DHT22;2228;48.140;11.488;2022-07-05T14:34:51;37.40;99.90
4431;DHT22;2228;48.140;11.488;2022-07-05T14:37:18;37.70;99.90
4431;DHT22;2228;48.140;11.488;2022-07-05T14:39:46;37.50;99.90
4431;DHT22;2228;48.140;11.488;2022-07-05T14:42:14;36.90;99.90
4431;DHT22;2228;48.140;11.488;2022-07-05T14:44:41;35.70;99.90
4431;DHT22;2228;48.140;11.488;2022-07-05T14:47:09;35.30;99.90
4431;DHT22;2228;48.140;11.488;2022-07-05T14:49:37;35.40;99.90
4431;DHT22;2228;48.140;11.488;2022-07-05T14:52:06;35.10;99.90
4431;DHT22;2228;48.140;11.488;2022-07-05T14:54:33;35.00;99.90
4431;DHT22;2228;48.140;11.488;2022-07-05T14:57:00;34.90;99.90
4431;DHT22;2228;48.140;11.488;2022-07-05T14:59:27;35.40;99.90
4431;DHT22;2228;48.140;11.488;2022-07-05T15:01:53;35.80;99.90
4431;DHT22;2228;48.140;11.488;2022-07-05T15:04:20;35.80;99.90
4431;DHT22;2228;48.140;11.488;2022-07-05T15:06:47;34.50;99.90
4431;DHT22;2228;48.140;11.488;2022-07-05T15:09:16;33.60;99.90
4431;DHT22;2228;48.140;11.488;2022-07-05T15:11:44;32.00;99.90
4431;DHT22;2228;48.140;11.488;2022-07-05T15:14:10;30.60;99.90
4431;DHT22;2228;48.140;11.488;2022-07-05T15:16:37;29.50;99.90
4431;DHT22;2228;48.140;11.488;2022-07-05T15:19:06;28.70;99.90
4431;DHT22;2228;48.140;11.488;2022-07-05T15:21:33;28.90;99.90
4431;DHT22;2228;48.140;11.488;2022-07-05T15:24:00;30.20;99.90
4431;DHT22;2228;48.140;11.488;2022-07-05T15:26:28;31.40;99.90
4431;DHT22;2228;48.140;11.488;2022-07-05T15:29:02;32.20;99.90
4431;DHT22;2228;48.140;11.488;2022-07-05T15:31:30;32.60;99.90
4431;DHT22;2228;48.140;11.488;2022-07-05T15:33:58;33.10;99.90
4431;DHT22;2228;48.140;11.488;2022-07-05T15:36:25;32.90;99.90
4431;DHT22;2228;48.140;11.488;2022-07-05T15:38:53;31.80;99.90
4431;DHT22;2228;48.140;11.488;2022-07-05T15:41:20;30.90;99.90
4431;DHT22;2228;48.140;11.488;2022-07-05T15:43:48;30.00;99.90
4431;DHT22;2228;48.140;11.488;2022-07-05T15:46:15;29.20;99.90
4431;DHT22;2228;48.140;11.488;2022-07-05T15:49:07;28.80;99.90
4431;DHT22;2228;48.140;11.488;2022-07-05T15:51:34;28.70;99.90
4431;DHT22;2228;48.140;11.488;2022-07-05T15:54:02;29.50;99.90
4431;DHT22;2228;48.140;11.488;2022-07-05T15:56:29;31.00;99.90
4431;DHT22;2228;48.140;11.488;2022-07-05T15:58:57;32.60;99.90
4431;DHT22;2228;48.140;11.488;2022-07-05T16:01:24;33.30;99.90
4431;DHT22;2228;48.140;11.488;2022-07-05T16:03:51;34.60;99.90
4431;DHT22;2228;48.140;11.488;2022-07-05T16:06:18;35.40;99.90
4431;DHT22;2228;48.140;11.488;2022-07-05T16:08:45;36.20;99.90